Time;durP1;ratioP1;P1;durP2;ratioP2;P2;SDS_P1;SDS_P2;PMS_P1;PMS_P2;Temp;Humidity;BMP_temperature;BMP_pressure;BME280_temperature;BME280_humidity;BME280_pressure;Samples;Min_cycle;Max_cycle;Signal;HPM_P1;HPM_P2
2023/01/24 00:00:28;;;;;;;24.45;20.45;;;;;;;2.57;100.00;103847.53;4954355;28;20047;-59
2023/01/24 00:02:53;;;;;;;22.80;19.45;;;;;;;2.55;100.00;103838.75;4952970;29;20051;-58
2023/01/24 00:05:19;;;;;;;23.90;18.73;;;;;;;2.54;100.00;103843.03;4954331;28;20066;-59
2023/01/24 00:07:44;;;;;;;22.40;18.40;;;;;;;2.53;100.00;103838.69;4953208;29;20043;-59
2023/01/24 00:10:10;;;;;;;23.77;19.38;;;;;;;2.52;100.00;103844.69;4954460;28;20518;-60
2023/01/24 00:12:36;;;;;;;25.52;18.95;;;;;;;2.52;100.00;103836.00;4954284;28;20515;-59
2023/01/24 00:15:01;;;;;;;21.52;18.40;;;;;;;2.05;100.00;103745.31;4953648;28;20059;-60
2023/01/24 00:17:26;;;;;;;23.23;19.75;;;;;;;2.51;100.00;103826.44;4952180;29;20031;-59
2023/01/24 00:19:52;;;;;;;23.35;19.58;;;;;;;1.97;100.00;103738.88;4951607;29;20471;-58
2023/01/24 00:22:17;;;;;;;25.25;20.13;;;;;;;1.98;100.00;103738.06;4953136;28;20403;-57
2023/01/24 00:24:42;;;;;;;26.40;20.40;;;;;;;2.45;100.00;103811.41;4954098;29;20119;-58
2023/01/24 00:27:08;;;;;;;24.00;19.70;;;;;;;1.95;100.00;103732.72;4953168;29;20284;-54
2023/01/24 00:29:33;;;;;;;23.67;19.25;;;;;;;2.03;100.00;103752.16;4953211;28;20035;-53
2023/01/24 00:31:58;;;;;;;24.42;19.42;;;;;;;2.49;100.00;103828.94;4953693;29;20031;-59
2023/01/24 00:34:24;;;;;;;26.10;20.23;;;;;;;2.50;100.00;103832.44;4952468;29;20039;-57
2023/01/24 00:36:49;;;;;;;24.50;19.77;;;;;;;2.51;100.00;103829.91;4953746;28;20039;-59
2023/01/24 00:39:14;;;;;;;22.25;18.90;;;;;;;2.45;100.00;103824.41;4954241;28;20035;-58
2023/01/24 00:41:40;;;;;;;22.55;19.25;;;;;;;2.49;100.00;103822.84;4953510;28;20076;-58
2023/01/24 00:44:05;;;;;;;23.50;19.45;;;;;;;1.99;100.00;103730.34;4952391;29;20039;-59
2023/01/24 00:46:30;;;;;;;22.77;19.77;;;;;;;2.51;100.00;103829.03;4953644;28;20043;-59
2023/01/24 00:48:56;;;;;;;22.40;19.10;;;;;;;2.37;100.00;103791.06;4953494;28;20094;-58
2023/01/24 00:51:21;;;;;;;22.15;18.98;;;;;;;1.92;100.00;103728.28;4952286;29;20055;-58
2023/01/24 00:53:46;;;;;;;23.38;19.77;;;;;;;2.39;100.00;103805.94;4953430;28;20438;-59
2023/01/24 00:56:12;;;;;;;23.52;20.23;;;;;;;2.05;100.00;103753.13;4953238;29;20384;-58
2023/01/24 00:58:37;;;;;;;23.65;20.23;;;;;;;2.36;100.00;103811.00;4953194;28;20035;-58
2023/01/24 01:01:03;;;;;;;22.30;19.50;;;;;;;1.94;100.00;103736.13;4953214;29;20043;-58
2023/01/24 01:03:28;;;;;;;23.58;18.85;;;;;;;2.01;100.00;103751.22;4953861;29;20497;-58
2023/01/24 01:06:14;;;;;;;23.92;20.45;;;;;;;2.36;100.00;103816.19;4953675;28;20062;-58
2023/01/24 01:08:40;;;;;;;26.15;21.30;;;;;;;2.37;100.00;103815.34;4952993;28;20035;-58
2023/01/24 01:11:06;;;;;;;25.20;20.83;;;;;;;1.93;100.00;103721.34;4952358;29;20043;-57
2023/01/24 01:13:31;;;;;;;23.98;20.98;;;;;;;2.38;100.00;103792.84;4951919;29;20494;-57
2023/01/24 01:16:02;;;;;;;23.92;20.05;;;;;;;1.93;100.00;103721.34;4951409;29;20110;-57
2023/01/24 01:18:27;;;;;;;23.55;20.70;;;;;;;1.97;100.00;103725.88;4952113;29;20094;-58
2023/01/24 01:20:52;;;;;;;27.05;21.83;;;;;;;2.40;100.00;103806.81;4953390;29;20047;-57
2023/01/24 01:23:18;;;;;;;25.70;20.05;;;;;;;2.38;100.00;103809.34;4953431;29;20055;-59
2023/01/24 01:25:43;;;;;;;24.45;19.48;;;;;;;2.29;100.00;103806.28;4953334;28;20031;-59
2023/01/24 01:28:09;;;;;;;23.73;20.15;;;;;;;2.37;100.00;103807.53;4936202;29;20035;-58
2023/01/24 01:30:34;;;;;;;25.65;20.73;;;;;;;2.37;100.00;103802.34;4953509;28;20075;-58
2023/01/24 01:32:59;;;;;;;24.20;20.27;;;;;;;2.38;100.00;103811.03;4953353;28;20035;-54
2023/01/24 01:35:25;;;;;;;23.73;19.90;;;;;;;2.28;100.00;103802.78;4953132;28;20494;-55
2023/01/24 01:37:50;;;;;;;21.30;18.33;;;;;;;1.60;100.00;103679.06;4953205;29;20039;-58
2023/01/24 01:40:17;;;;;;;23.55;19.00;;;;;;;1.76;100.00;103699.75;4953198;28;20387;-58
2023/01/24 01:42:56;;;;;;;23.58;19.17;;;;;;;2.34;100.00;103809.09;4952910;28;20039;-57
2023/01/24 01:45:33;;;;;;;23.00;19.83;;;;;;;2.37;100.00;103809.25;4952133;29;20061;-58
2023/01/24 01:47:59;;;;;;;22.45;18.95;;;;;;;2.24;100.00;103787.91;4953286;29;20314;-58
2023/01/24 01:51:11;;;;;;;23.55;19.90;;;;;;;2.36;100.00;103800.59;4952029;29;20031;-58
2023/01/24 01:53:53;;;;;;;23.52;19.77;;;;;;;1.92;100.00;103728.28;4951465;29;20038;-58
2023/01/24 01:56:26;;;;;;;22.67;18.90;;;;;;;2.33;100.00;103795.25;4952861;28;20479;-56
2023/01/24 01:58:53;;;;;;;22.95;19.85;;;;;;;2.30;100.00;103783.81;4951897;29;20093;-58
2023/01/24 02:01:18;;;;;;;23.08;19.77;;;;;;;2.29;100.00;103801.09;4951696;29;20083;-58
2023/01/24 02:03:48;;;;;;;25.92;20.05;;;;;;;2.24;100.00;103790.50;4952973;29;20039;-57
2023/01/24 02:06:28;;;;;;;20.23;17.60;;;;;;;2.33;100.00;103790.03;4955299;28;20031;-55
2023/01/24 02:08:53;;;;;;;20.20;17.75;;;;;;;2.28;100.00;103787.19;4956802;28;20386;-59
2023/01/24 02:16:46;;;;;;;22.25;18.90;;;;;;;2.20;100.00;103769.47;4955203;29;20442;-57
2023/01/24 02:19:21;;;;;;;22.48;18.85;;;;;;;2.23;100.00;103798.19;4955992;28;20043;-58
2023/01/24 02:21:49;;;;;;;22.73;18.40;;;;;;;1.87;100.00;103713.28;4954802;29;20092;-55
2023/01/24 02:24:28;;;;;;;18.95;16.50;;;;;;;1.69;100.00;103690.78;4956155;28;20027;-57
2023/01/24 02:26:54;;;;;;;19.80;17.65;;;;;;;1.96;100.00;103742.28;4954921;29;20138;-57
2023/01/24 02:29:20;;;;;;;23.30;18.38;;;;;;;2.21;100.00;103798.13;4955767;28;20066;-55
2023/01/24 02:31:59;;;;;;;26.88;18.42;;;;;;;1.80;100.00;103722.47;4956165;28;20042;-58
2023/01/24 02:34:25;;;;;;;21.63;18.48;;;;;;;1.82;100.00;103732.94;4954983;29;20082;-58
2023/01/24 02:37:13;;;;;;;24.13;18.95;;;;;;;2.22;100.00;103806.81;4954432;29;20042;-59
2023/01/24 02:39:46;;;;;;;23.70;18.27;;;;;;;1.80;100.00;103729.38;4955109;28;20365;-57
2023/01/24 02:42:15;;;;;;;22.45;18.73;;;;;;;2.23;100.00;103806.91;4954657;29;20126;-57
2023/01/24 02:45:02;;;;;;;22.73;18.70;;;;;;;2.10;100.00;103765.53;4954440;29;20027;-57
2023/01/24 02:47:32;;;;;;;19.75;17.55;;;;;;;2.21;100.00;103792.94;4954490;29;20122;-56
2023/01/24 02:49:58;;;;;;;22.63;18.90;;;;;;;2.07;100.00;103756.72;4955599;28;20039;-57
2023/01/24 02:55:08;;;;;;;21.77;19.17;;;;;;;2.21;100.00;103786.84;4955483;29;20043;-59
2023/01/24 03:00:17;;;;;;;20.25;17.70;;;;;;;1.74;100.00;103710.91;4955525;29;20147;-55
2023/01/24 03:02:43;;;;;;;25.67;19.88;;;;;;;1.84;100.00;103718.34;4955442;28;20499;-54
2023/01/24 03:05:08;;;;;;;22.15;19.55;;;;;;;2.13;100.00;103781.25;4955391;28;20036;-56
2023/01/24 03:07:41;;;;;;;25.05;20.70;;;;;;;2.10;100.00;103773.31;4953795;29;20049;-57
2023/01/24 03:10:09;;;;;;;23.98;19.90;;;;;;;1.64;100.00;103694.84;4954236;29;20127;-58
2023/01/24 03:34:33;;;;;;;24.42;19.90;;;;;;;2.11;100.00;103772.50;4954806;29;20204;-57
2023/01/24 03:37:01;;;;;;;24.50;20.40;;;;;;;1.77;100.00;103709.34;4954582;28;20031;-58
2023/01/24 03:42:10;;;;;;;25.13;20.20;;;;;;;1.66;100.00;103690.63;4953861;29;20522;-57
2023/01/24 03:44:35;;;;;;;27.13;21.30;;;;;;;2.10;100.00;103781.09;4953283;29;20244;-55
2023/01/24 03:47:01;;;;;;;24.92;20.98;;;;;;;1.64;100.00;103692.25;4954819;28;20475;-56
2023/01/24 03:52:28;;;;;;;25.42;19.58;;;;;;;2.08;100.00;103776.66;4953464;29;20058;-59
2023/01/24 03:54:54;;;;;;;24.63;20.00;;;;;;;2.03;100.00;103767.75;4954573;28;20035;-57
2023/01/24 03:57:20;;;;;;;24.05;20.05;;;;;;;2.07;100.00;103780.09;4954409;28;20042;-57
2023/01/24 03:59:45;;;;;;;25.75;20.27;;;;;;;2.06;100.00;103786.09;4954429;29;20418;-56
2023/01/24 04:02:10;;;;;;;27.05;21.10;;;;;;;1.62;100.00;103708.59;4954513;29;20090;-57
2023/01/24 04:07:20;;;;;;;28.23;22.63;;;;;;;2.06;100.00;103779.19;4954300;29;20454;-58
2023/01/24 04:09:46;;;;;;;25.85;21.55;;;;;;;2.06;100.00;103779.19;4952964;29;20037;-58
2023/01/24 04:12:11;;;;;;;31.85;21.80;;;;;;;1.93;100.00;103750.81;4954222;28;20035;-57
2023/01/24 04:14:36;;;;;;;28.20;22.67;;;;;;;2.06;100.00;103774.00;4953841;28;20054;-55
2023/01/24 04:17:02;;;;;;;26.23;21.80;;;;;;;1.87;100.00;103739.25;4953728;28;20042;-57
2023/01/24 04:19:28;;;;;;;24.58;21.05;;;;;;;1.92;100.00;103751.66;4953071;29;20142;-58
2023/01/24 04:21:57;;;;;;;26.02;22.35;;;;;;;1.57;100.00;103687.59;4954385;28;20376;-56
2023/01/24 04:24:22;;;;;;;25.42;21.75;;;;;;;1.82;100.00;103745.91;4954512;28;20031;-58
2023/01/24 04:26:47;;;;;;;25.38;21.63;;;;;;;2.03;100.00;103786.84;4953853;28;20031;-57
2023/01/24 04:29:13;;;;;;;26.20;22.05;;;;;;;1.95;100.00;103767.41;4952999;28;20031;-56
2023/01/24 04:31:38;;;;;;;26.13;21.88;;;;;;;1.56;100.00;103701.38;4953772;28;20043;-58
2023/01/24 04:34:03;;;;;;;25.98;22.30;;;;;;;2.06;100.00;103778.31;4954123;28;20041;-58
2023/01/24 04:36:29;;;;;;;26.83;22.70;;;;;;;1.62;100.00;103706.00;4953993;28;20082;-56
2023/01/24 04:38:55;;;;;;;25.33;21.60;;;;;;;2.07;100.00;103774.91;4954013;29;20054;-56
2023/01/24 04:41:20;;;;;;;29.90;22.38;;;;;;;2.06;100.00;103784.41;4952579;29;20062;-57
2023/01/24 04:43:45;;;;;;;26.67;22.23;;;;;;;1.62;100.00;103713.78;4953669;28;20078;-55
2023/01/24 04:46:11;;;;;;;27.80;22.42;;;;;;;1.97;100.00;103781.34;4953657;28;20059;-54
2023/01/24 04:48:36;;;;;;;26.52;22.35;;;;;;;1.98;100.00;103787.44;4952702;29;20074;-57
2023/01/24 04:51:01;;;;;;;26.13;21.77;;;;;;;2.01;100.00;103790.19;4953590;29;20035;-54
2023/01/24 04:53:28;;;;;;;27.95;21.80;;;;;;;1.96;100.00;103789.03;4953687;28;20069;-55
2023/01/24 04:55:54;;;;;;;27.98;22.30;;;;;;;1.51;100.00;103710.66;4952234;29;20035;-57
2023/01/24 04:58:19;;;;;;;25.88;21.92;;;;;;;1.55;100.00;103728.16;4953766;28;20046;-57
2023/01/24 05:00:45;;;;;;;26.85;21.42;;;;;;;1.95;100.00;103795.06;4951967;29;20118;-59
2023/01/24 05:03:10;;;;;;;26.92;21.95;;;;;;;1.62;100.00;103745.81;4953473;28;20479;-56
2023/01/24 05:05:35;;;;;;;25.45;20.65;;;;;;;1.54;100.00;103722.91;4953712;29;20054;-56
2023/01/24 05:08:01;;;;;;;23.75;20.10;;;;;;;1.93;100.00;103801.88;4952682;29;20039;-56
2023/01/24 05:10:26;;;;;;;25.58;20.45;;;;;;;1.52;100.00;103728.00;4953402;28;20035;-57
2023/01/24 05:12:51;;;;;;;23.77;19.90;;;;;;;1.95;100.00;103802.88;4953457;29;20047;-57
2023/01/24 05:15:19;;;;;;;25.73;20.60;;;;;;;1.50;100.00;103721.84;4953093;29;20050;-56
2023/01/24 05:17:44;;;;;;;25.00;20.63;;;;;;;1.88;100.00;103783.47;4952282;29;20130;-56
2023/01/24 05:20:10;;;;;;;26.55;21.13;;;;;;;1.54;100.00;103734.19;4952213;29;20471;-58
2023/01/24 05:22:36;;;;;;;26.17;21.05;;;;;;;1.95;100.00;103813.25;4953663;28;20027;-56
2023/01/24 05:25:01;;;;;;;23.80;20.02;;;;;;;1.44;100.00;103710.25;4953550;28;20043;-59
2023/01/24 05:27:27;;;;;;;23.10;19.67;;;;;;;1.66;100.00;103757.25;4953283;28;20038;-56
2023/01/24 05:29:52;;;;;;;27.75;20.73;;;;;;;1.46;100.00;103725.09;4953155;28;20122;-56
2023/01/24 05:32:17;;;;;;;21.23;18.58;;;;;;;1.96;100.00;103813.31;4952143;29;20039;-58
2023/01/24 05:34:43;;;;;;;23.98;20.20;;;;;;;1.87;100.00;103799.88;4953199;28;20039;-56
2023/01/24 05:37:08;;;;;;;22.02;19.55;;;;;;;1.91;100.00;103811.31;4936057;29;20134;-56
2023/01/24 05:39:33;;;;;;;23.90;19.95;;;;;;;1.93;100.00;103810.56;4953327;28;20067;-57
2023/01/24 05:41:59;;;;;;;23.85;20.00;;;;;;;1.97;100.00;103825.50;4956660;28;20059;-57
2023/01/24 05:44:24;;;;;;;23.80;19.85;;;;;;;1.97;100.00;103832.41;4956870;28;20085;-57
2023/01/24 05:46:49;;;;;;;21.70;18.67;;;;;;;1.96;100.00;103833.19;4956404;28;20051;-57
2023/01/24 05:49:15;;;;;;;23.42;18.88;;;;;;;1.99;100.00;103823.88;4955680;29;20046;-55
2023/01/24 05:51:40;;;;;;;26.10;20.85;;;;;;;1.97;100.00;103829.81;4957052;28;20038;-58
2023/01/24 05:54:05;;;;;;;25.55;19.77;;;;;;;1.54;100.00;103754.03;4956779;28;20035;-59
2023/01/24 05:56:31;;;;;;;21.80;18.95;;;;;;;1.96;100.00;103830.59;4956463;28;20035;-59
2023/01/24 05:58:57;;;;;;;23.10;18.55;;;;;;;1.87;100.00;103801.59;4956679;28;20426;-55
2023/01/24 06:01:23;;;;;;;24.02;19.73;;;;;;;1.92;100.00;103816.59;4955509;29;20041;-57
2023/01/24 06:03:50;;;;;;;23.08;19.45;;;;;;;1.51;100.00;103738.31;4955230;29;20390;-57
2023/01/24 06:06:18;;;;;;;24.45;19.83;;;;;;;1.62;100.00;103766.59;4956559;28;20031;-56
2023/01/24 06:08:43;;;;;;;22.98;19.60;;;;;;;1.47;100.00;103737.25;4955192;29;20035;-57
2023/01/24 06:11:15;;;;;;;24.20;19.65;;;;;;;1.85;100.00;103811.00;4954819;29;20039;-58
2023/01/24 06:13:40;;;;;;;22.15;18.88;;;;;;;1.45;100.00;103740.59;4954804;29;20122;-55
2023/01/24 06:16:14;;;;;;;27.17;20.55;;;;;;;1.56;100.00;103762.78;4956566;28;20555;-55
2023/01/24 06:18:40;;;;;;;23.13;19.55;;;;;;;1.93;100.00;103830.44;4955291;29;20035;-58
2023/01/24 06:21:25;;;;;;;24.52;19.25;;;;;;;1.59;100.00;103769.03;4956579;28;20387;-57
2023/01/24 06:23:50;;;;;;;23.50;19.90;;;;;;;1.39;100.00;103733.41;4956016;28;20130;-57
2023/01/24 06:26:16;;;;;;;27.90;22.05;;;;;;;1.80;100.00;103807.28;4956378;28;20530;-56
2023/01/24 06:28:42;;;;;;;24.30;20.05;;;;;;;1.83;100.00;103812.63;4956074;28;20149;-53
2023/01/24 06:31:43;;;;;;;24.58;20.50;;;;;;;1.93;100.00;103838.25;4955962;29;20035;-57
2023/01/24 06:34:09;;;;;;;26.48;20.50;;;;;;;1.95;100.00;103847.03;4955070;29;20047;-56
2023/01/24 06:36:52;;;;;;;25.60;20.98;;;;;;;1.44;100.00;103756.97;4955817;29;20046;-57
2023/01/24 06:39:17;;;;;;;23.73;20.15;;;;;;;1.91;100.00;103832.97;4954749;29;20056;-58
2023/01/24 06:41:43;;;;;;;25.85;20.63;;;;;;;1.90;100.00;103838.97;4954677;29;20043;-58
2023/01/24 06:44:12;;;;;;;25.25;20.55;;;;;;;1.88;100.00;103842.31;4955824;28;20042;-58
2023/01/24 06:46:37;;;;;;;23.05;19.85;;;;;;;1.81;100.00;103835.91;4954414;29;20471;-57
2023/01/24 06:49:02;;;;;;;26.23;20.35;;;;;;;1.89;100.00;103838.91;4955724;28;20039;-56
2023/01/24 06:51:28;;;;;;;31.90;20.20;;;;;;;1.77;100.00;103812.31;4955785;28;20148;-57
2023/01/24 06:53:53;;;;;;;23.90;20.02;;;;;;;1.43;100.00;103770.78;4955975;28;20042;-58
2023/01/24 06:56:18;;;;;;;24.92;19.85;;;;;;;1.39;100.00;103753.25;4955395;28;20412;-59
2023/01/24 06:58:44;;;;;;;23.90;20.17;;;;;;;1.87;100.00;103850.94;4954087;29;20376;-58
2023/01/24 07:01:09;;;;;;;24.25;19.52;;;;;;;1.85;100.00;103843.06;4955566;28;20039;-57
2023/01/24 07:03:34;;;;;;;24.00;19.60;;;;;;;1.75;100.00;103822.66;4955381;28;20035;-55
2023/01/24 07:06:00;;;;;;;25.27;20.63;;;;;;;1.79;100.00;103840.16;4955720;28;20027;-57
2023/01/24 07:08:25;;;;;;;24.13;20.27;;;;;;;1.82;100.00;103845.50;4954374;29;20103;-58
2023/01/24 07:10:51;;;;;;;24.23;19.08;;;;;;;1.41;100.00;103781.06;4955017;28;20035;-58
2023/01/24 07:13:16;;;;;;;22.85;18.25;;;;;;;1.37;100.00;103771.34;4955872;28;20487;-58
2023/01/24 07:15:41;;;;;;;23.00;19.00;;;;;;;1.78;100.00;103845.28;4955225;28;20063;-56
2023/01/24 07:18:08;;;;;;;22.38;18.85;;;;;;;1.68;100.00;103837.03;4954902;28;20043;-57
2023/01/24 07:20:34;;;;;;;24.63;20.25;;;;;;;1.75;100.00;103855.50;4954352;28;20138;-55
2023/01/24 07:22:59;;;;;;;24.63;19.98;;;;;;;1.79;100.00;103857.44;4955040;28;20031;-56
2023/01/24 07:25:26;;;;;;;27.35;21.52;;;;;;;1.81;100.00;103853.22;4953769;29;20038;-58
2023/01/24 07:27:52;;;;;;;24.90;19.58;;;;;;;1.77;100.00;103875.53;4953032;28;20035;-57
2023/01/24 07:30:17;;;;;;;26.02;20.35;;;;;;;1.78;100.00;103868.66;4953743;29;20343;-55
2023/01/24 07:32:42;;;;;;;22.30;18.85;;;;;;;1.80;100.00;103856.63;4969483;28;20518;-57
2023/01/24 07:35:08;;;;;;;26.02;20.40;;;;;;;1.32;100.00;103783.19;4953073;29;20047;-57
2023/01/24 07:37:33;;;;;;;27.17;20.10;;;;;;;1.45;100.00;103800.28;4954714;28;20067;-58
2023/01/24 07:39:59;;;;;;;25.13;20.42;;;;;;;1.27;100.00;103778.56;4954557;28;20054;-58
2023/01/24 07:42:24;;;;;;;28.40;21.48;;;;;;;1.35;100.00;103780.75;4954249;28;20049;-55
2023/01/24 07:44:49;;;;;;;27.92;19.60;;;;;;;1.82;100.00;103873.19;4954543;28;20042;-55
2023/01/24 07:47:15;;;;;;;23.48;19.73;;;;;;;1.80;100.00;103869.63;4954610;29;20050;-56
2023/01/24 07:49:40;;;;;;;23.70;19.25;;;;;;;1.73;100.00;103880.50;4954405;29;20391;-58
2023/01/24 07:52:05;;;;;;;25.55;21.15;;;;;;;1.72;100.00;103878.72;4954546;29;20469;-58
2023/01/24 07:54:31;;;;;;;24.42;20.52;;;;;;;1.30;100.00;103799.50;4952759;29;20499;-57
2023/01/24 07:56:56;;;;;;;27.48;21.95;;;;;;;1.17;100.00;103789.31;4954385;29;20054;-59
2023/01/24 07:59:21;;;;;;;28.58;22.13;;;;;;;1.63;100.00;103874.81;4953683;28;20039;-57
2023/01/24 08:01:47;;;;;;;28.00;21.70;;;;;;;1.62;100.00;103885.13;4953122;29;20039;-57
2023/01/24 08:04:12;;;;;;;26.75;21.52;;;;;;;1.47;100.00;103856.66;4953660;28;20035;-56
2023/01/24 08:07:16;;;;;;;25.67;20.77;;;;;;;1.59;100.00;103875.47;4952443;29;20039;-55
2023/01/24 08:09:29;;;;;;;28.55;22.95;;;;;;;1.57;100.00;103882.31;4953749;29;20051;-59
2023/01/24 08:11:55;;;;;;;29.85;23.10;;;;;;;1.65;100.00;103895.69;4953998;28;20035;-59
2023/01/24 08:14:21;;;;;;;30.17;22.13;;;;;;;1.66;100.00;103887.09;4952617;29;20490;-58
2023/01/24 08:16:47;;;;;;;28.92;23.20;;;;;;;1.24;100.00;103815.63;4953940;28;20050;-58
2023/01/24 08:19:12;;;;;;;30.67;24.38;;;;;;;1.24;100.00;103810.44;4952891;29;20047;-58
2023/01/24 08:21:38;;;;;;;28.58;23.10;;;;;;;1.72;100.00;103899.50;4953464;29;20115;-57
2023/01/24 08:24:03;;;;;;;30.33;24.55;;;;;;;1.73;100.00;103890.88;4952778;29;20063;-55
2023/01/24 08:26:29;;;;;;;29.95;24.60;;;;;;;1.34;100.00;103835.19;4953872;28;20672;-58
2023/01/24 08:28:54;;;;;;;31.08;23.65;;;;;;;1.74;100.00;103900.47;4952444;29;20081;-57
2023/01/24 08:31:19;;;;;;;31.33;24.55;;;;;;;1.66;100.00;103895.75;4953258;28;20043;-56
2023/01/24 08:33:45;;;;;;;29.73;23.17;;;;;;;1.65;100.00;103886.19;4952432;29;20094;-57
2023/01/24 08:36:10;;;;;;;29.20;23.42;;;;;;;1.64;100.00;103901.66;4952003;29;20036;-56
2023/01/24 08:38:35;;;;;;;30.13;23.77;;;;;;;1.73;100.00;103903.84;4952598;28;20487;-55
2023/01/24 08:41:04;;;;;;;28.85;23.50;;;;;;;1.34;100.00;103836.09;4953493;28;20073;-57
2023/01/24 08:43:30;;;;;;;31.92;23.92;;;;;;;1.36;100.00;103834.44;4953070;28;20095;-57
2023/01/24 08:45:55;;;;;;;28.73;23.02;;;;;;;1.75;100.00;103913.53;4954184;29;20192;-57
2023/01/24 08:48:21;;;;;;;29.60;23.35;;;;;;;1.72;100.00;103922.88;4941723;29;20376;-55
2023/01/24 08:50:46;;;;;;;30.60;23.15;;;;;;;1.60;100.00;103889.38;4949401;29;20039;-57
2023/01/24 08:53:12;;;;;;;28.70;23.13;;;;;;;1.73;100.00;103915.16;4953438;29;20089;-56
2023/01/24 08:55:37;;;;;;;32.42;24.42;;;;;;;1.73;100.00;103914.25;4952146;29;20054;-57
2023/01/24 08:58:03;;;;;;;28.50;22.25;;;;;;;1.74;100.00;103923.84;4952272;29;20042;-56
2023/01/24 09:00:29;;;;;;;26.27;20.95;;;;;;;1.25;100.00;103833.00;4953687;28;20039;-57
2023/01/24 09:02:58;;;;;;;31.45;23.75;;;;;;;1.71;100.00;103914.19;4953505;28;20475;-57
2023/01/24 09:05:23;;;;;;;28.27;22.38;;;;;;;1.65;100.00;103901.78;4953237;28;20190;-54
2023/01/24 09:07:49;;;;;;;30.50;22.75;;;;;;;1.27;100.00;103841.75;4953097;28;20114;-55
2023/01/24 09:10:14;;;;;;;30.00;23.95;;;;;;;1.76;100.00;103955.97;4953190;29;20035;-53
2023/01/24 09:12:40;;;;;;;28.55;22.15;;;;;;;1.80;100.00;103927.66;4948952;28;20040;-56
2023/01/24 09:15:07;;;;;;;30.42;23.52;;;;;;;1.38;100.00;103853.59;4954594;28;20091;-59
2023/01/24 09:17:32;;;;;;;30.35;23.67;;;;;;;1.78;100.00;103925.78;4957207;29;20470;-58
2023/01/24 09:19:57;;;;;;;30.17;23.45;;;;;;;1.79;100.00;103932.75;4955737;29;20040;-55
2023/01/24 09:22:23;;;;;;;30.08;23.88;;;;;;;0.89;100.00;103774.84;4955365;29;20503;-57
2023/01/24 09:24:48;;;;;;;31.10;24.40;;;;;;;1.52;100.00;103888.03;4957537;28;20043;-56
2023/01/24 09:27:13;;;;;;;27.45;21.63;;;;;;;1.81;100.00;103926.81;4956895;28;20070;-57
2023/01/24 09:29:39;;;;;;;30.13;22.48;;;;;;;1.83;100.00;103938.19;4956419;29;20054;-57
2023/01/24 09:32:04;;;;;;;28.88;21.75;;;;;;;1.85;100.00;103933.97;4956659;28;20042;-55
2023/01/24 09:34:30;;;;;;;30.50;22.35;;;;;;;1.83;100.00;103937.31;4955808;29;20086;-57
2023/01/24 09:36:55;;;;;;;26.45;20.77;;;;;;;1.50;100.00;103875.00;4956779;29;20050;-57
2023/01/24 09:39:20;;;;;;;30.95;22.83;;;;;;;1.85;100.00;103938.25;4956704;29;20359;-56
2023/01/24 09:42:27;;;;;;;27.65;22.13;;;;;;;1.84;100.00;103947.75;4955724;29;20565;-57
2023/01/24 09:45:08;;;;;;;27.00;21.50;;;;;;;1.85;100.00;103959.94;4915352;29;20047;-58
2023/01/24 09:47:44;;;;;;;29.63;22.63;;;;;;;1.67;100.00;103923.50;4916289;29;20032;-56
2023/01/24 09:50:20;;;;;;;27.55;21.08;;;;;;;1.86;100.00;103966.94;4922936;29;20052;-57
2023/01/24 09:52:48;;;;;;;30.92;22.05;;;;;;;1.45;100.00;103884.25;4937512;29;20032;-58
2023/01/24 09:55:19;;;;;;;28.27;21.70;;;;;;;1.86;100.00;103961.75;4936090;29;20388;-58
2023/01/24 09:57:56;;;;;;;26.48;20.95;;;;;;;1.70;100.00;103921.06;4936007;29;20027;-59
2023/01/24 10:00:37;;;;;;;28.77;22.35;;;;;;;1.45;100.00;103867.78;4936418;29;20130;-57
2023/01/24 10:03:03;;;;;;;26.55;21.60;;;;;;;1.50;100.00;103877.59;4936156;29;20094;-59
2023/01/24 10:05:34;;;;;;;25.38;20.48;;;;;;;1.86;100.00;103935.75;4936596;29;20391;-58
2023/01/24 10:08:02;;;;;;;27.75;21.88;;;;;;;1.95;100.00;103957.03;4936980;29;20094;-56
2023/01/24 10:10:44;;;;;;;28.35;21.10;;;;;;;1.86;100.00;103937.47;4935483;29;20404;-58
2023/01/24 10:13:22;;;;;;;27.38;21.48;;;;;;;1.98;100.00;103966.69;4935843;29;20075;-58
2023/01/24 10:16:23;;;;;;;26.05;20.25;;;;;;;2.03;100.00;103955.72;4937048;29;20280;-56
2023/01/24 10:19:01;;;;;;;24.33;20.17;;;;;;;1.53;100.00;103872.56;4935754;29;20043;-55
2023/01/24 10:21:50;;;;;;;28.60;20.10;;;;;;;1.98;100.00;103962.38;4935971;29;20787;-58
2023/01/24 10:24:20;;;;;;;27.23;20.88;;;;;;;2.02;100.00;103958.22;4937321;29;20020;-57
2023/01/24 10:26:50;;;;;;;27.05;21.20;;;;;;;2.06;100.00;103960.19;4936568;29;20040;-58
2023/01/24 10:29:24;;;;;;;25.67;20.08;;;;;;;2.04;100.00;103961.81;4935782;29;20032;-58
2023/01/24 10:32:29;;;;;;;24.48;20.10;;;;;;;1.92;100.00;103942.97;4936838;29;20043;-58
2023/01/24 10:34:58;;;;;;;25.65;20.10;;;;;;;2.04;100.00;103960.06;4876969;29;20054;-56
2023/01/24 10:37:25;;;;;;;26.45;20.63;;;;;;;1.95;100.00;103941.44;4926172;29;20047;-56
2023/01/24 10:39:51;;;;;;;25.05;20.40;;;;;;;1.98;100.00;103951.09;4935611;29;20459;-57
2023/01/24 10:42:22;;;;;;;25.38;20.92;;;;;;;2.04;100.00;103961.81;4937133;29;20040;-58
2023/01/24 10:44:48;;;;;;;28.20;20.75;;;;;;;1.99;100.00;103945.06;4936986;29;20395;-57
2023/01/24 10:47:18;;;;;;;27.25;22.42;;;;;;;2.12;100.00;103940.59;4935579;29;20031;-55
2023/01/24 10:49:50;;;;;;;25.77;20.67;;;;;;;2.14;100.00;103948.47;4937873;28;20087;-58
2023/01/24 10:52:18;;;;;;;27.80;21.73;;;;;;;2.14;100.00;103936.38;4943531;28;20474;-58
2023/01/24 10:54:48;;;;;;;26.67;21.58;;;;;;;1.69;100.00;103856.97;4950171;29;20027;-57
2023/01/24 10:57:20;;;;;;;27.70;20.85;;;;;;;2.17;100.00;103948.63;4951486;29;20397;-58
2023/01/24 10:59:46;;;;;;;26.85;22.00;;;;;;;2.17;100.00;103946.91;4941038;29;20030;-54
2023/01/24 11:02:20;;;;;;;25.58;20.90;;;;;;;2.17;100.00;103939.13;4941476;29;20055;-56
2023/01/24 11:04:46;;;;;;;25.10;19.38;;;;;;;2.09;100.00;103914.47;4947608;29;20086;-58
2023/01/24 11:07:27;;;;;;;27.45;22.48;;;;;;;2.11;100.00;103941.41;4946423;28;20039;-57
2023/01/24 11:09:53;;;;;;;26.67;20.67;;;;;;;2.15;100.00;103939.88;4943789;29;20023;-56
2023/01/24 11:12:20;;;;;;;29.88;21.50;;;;;;;2.17;100.00;103931.31;4944789;29;20394;-56
2023/01/24 11:14:48;;;;;;;27.33;21.30;;;;;;;1.67;100.00;103848.22;4938351;28;20040;-54
2023/01/24 11:17:32;;;;;;;27.67;21.40;;;;;;;2.20;100.00;103926.28;4949185;29;20027;-57
2023/01/24 11:20:21;;;;;;;24.92;19.92;;;;;;;2.19;100.00;103924.50;4941781;29;20027;-56
2023/01/24 11:22:49;;;;;;;26.80;21.42;;;;;;;1.78;100.00;103848.75;4929003;28;20488;-57
2023/01/24 11:25:15;;;;;;;29.00;22.20;;;;;;;1.71;100.00;103841.47;4950472;29;20035;-55
2023/01/24 11:27:48;;;;;;;26.92;21.50;;;;;;;1.75;100.00;103837.34;4938891;29;20032;-56
2023/01/24 11:30:13;;;;;;;28.58;21.73;;;;;;;2.34;100.00;103920.88;4943258;28;20028;-55
2023/01/24 11:33:00;;;;;;;26.75;21.48;;;;;;;2.35;100.00;103915.78;4948666;29;20331;-56
2023/01/24 11:35:33;;;;;;;25.15;20.65;;;;;;;2.03;100.00;103876.88;4948639;29;20027;-57
2023/01/24 11:38:12;;;;;;;27.48;21.52;;;;;;;2.24;100.00;103919.53;4938739;29;20055;-55
2023/01/24 11:40:44;;;;;;;24.40;20.65;;;;;;;1.76;100.00;103828.72;4947321;29;20111;-61
2023/01/24 11:43:28;;;;;;;26.17;21.75;;;;;;;2.25;100.00;103922.19;4952716;29;20398;-58
2023/01/24 11:46:04;;;;;;;25.55;20.48;;;;;;;2.29;100.00;103918.06;4950344;29;20042;-56
2023/01/24 11:48:39;;;;;;;24.23;20.73;;;;;;;2.27;100.00;103922.31;4952013;29;20155;-57
2023/01/24 11:51:16;;;;;;;27.20;22.02;;;;;;;2.28;100.00;103916.25;4953934;28;20031;-58
2023/01/24 11:53:52;;;;;;;24.95;20.52;;;;;;;1.70;100.00;103800.72;4954258;28;20032;-57
2023/01/24 11:56:41;;;;;;;25.45;20.95;;;;;;;2.34;100.00;103897.47;4952776;29;20211;-58